createdAt,value
2022-12-11T00:01:38.859Z,18.32
2022-12-11T00:04:05.542Z,19.10
2022-12-11T00:06:32.167Z,19.12
2022-12-11T00:08:58.900Z,19.23
2022-12-11T00:11:25.568Z,18.91
2022-12-11T00:13:52.262Z,19.50
2022-12-11T00:16:23.817Z,19.47
2022-12-11T00:18:53.308Z,19.26
2022-12-11T00:21:19.988Z,19.83
2022-12-11T00:23:46.685Z,19.00
2022-12-11T00:26:15.119Z,18.20
2022-12-11T00:28:43.807Z,19.42
2022-12-11T00:31:15.803Z,18.73
2022-12-11T00:33:45.083Z,18.12
2022-12-11T00:36:14.210Z,18.41
2022-12-11T00:38:41.264Z,17.91
2022-12-11T00:41:07.958Z,17.19
2022-12-11T00:43:34.743Z,16.59
2022-12-11T00:46:01.561Z,16.24
2022-12-11T00:48:28.208Z,15.33
2022-12-11T00:50:54.994Z,14.41
2022-12-11T00:53:21.641Z,14.31
2022-12-11T00:55:48.340Z,14.12
2022-12-11T00:58:16.043Z,14.33
2022-12-11T01:00:43.156Z,15.34
2022-12-11T01:03:13.012Z,15.52
2022-12-11T01:05:39.793Z,16.14
2022-12-11T01:08:06.908Z,15.54
2022-12-11T01:10:33.995Z,15.60
2022-12-11T01:13:04.943Z,15.73
2022-12-11T01:15:41.353Z,15.76
2022-12-11T01:18:10.982Z,16.17
2022-12-11T01:20:40.318Z,15.45
2022-12-11T01:23:07.285Z,16.15
2022-12-11T01:25:36.658Z,15.65
2022-12-11T01:28:03.881Z,16.77
2022-12-11T01:30:30.653Z,16.38
2022-12-11T01:32:57.425Z,16.62
2022-12-11T01:35:27.516Z,16.83
2022-12-11T01:37:54.313Z,16.40
2022-12-11T01:40:22.729Z,16.58
2022-12-11T01:42:49.915Z,16.19
2022-12-11T01:45:29.704Z,16.45
2022-12-11T01:48:12.480Z,17.10
2022-12-11T01:50:49.153Z,16.43
2022-12-11T01:53:21.288Z,17.01
2022-12-11T01:55:53.254Z,17.29
2022-12-11T01:58:23.834Z,16.69
2022-12-11T02:00:52.929Z,16.61
2022-12-11T02:03:20.253Z,16.80
2022-12-11T02:05:47.075Z,17.10
2022-12-11T02:08:14.710Z,16.52
2022-12-11T02:10:58.151Z,17.04
2022-12-11T02:13:56.071Z,17.01
2022-12-11T02:16:37.746Z,16.85
2022-12-11T02:19:16.809Z,16.80
2022-12-11T02:21:53.127Z,16.53
2022-12-11T02:24:32.936Z,16.74
2022-12-11T02:27:31.923Z,17.06
2022-12-11T02:30:08.247Z,16.98
2022-12-11T02:32:59.429Z,17.17
2022-12-11T02:35:33.487Z,18.10
2022-12-11T02:38:12.918Z,17.56
2022-12-11T02:40:42.736Z,18.76
2022-12-11T02:43:12.980Z,18.06
2022-12-11T02:45:42.433Z,18.79
2022-12-11T02:48:12.847Z,18.24
2022-12-11T02:50:46.227Z,18.39
2022-12-11T02:53:18.497Z,18.46
2022-12-11T02:55:45.743Z,18.59
2022-12-11T02:58:22.085Z,17.76
2022-12-11T03:00:49.039Z,18.52
2022-12-11T03:03:15.945Z,18.95
2022-12-11T03:05:43.303Z,18.44
2022-12-11T03:08:10.354Z,18.13
2022-12-11T03:10:37.092Z,18.10
2022-12-11T03:13:05.144Z,18.55
2022-12-11T03:15:58.617Z,18.09
2022-12-11T03:18:30.543Z,18.22
2022-12-11T03:21:05.072Z,18.44
2022-12-11T03:23:44.072Z,18.74
2022-12-11T03:26:15.505Z,19.10
2022-12-11T03:28:54.915Z,19.28
2022-12-11T03:31:31.556Z,19.30
2022-12-11T03:34:04.585Z,20.09
2022-12-11T03:36:36.503Z,19.83
2022-12-11T03:39:13.400Z,20.58
2022-12-11T03:41:43.919Z,20.64
2022-12-11T03:44:12.669Z,20.97
2022-12-11T03:46:43.400Z,20.50
2022-12-11T03:49:24.013Z,20.58
2022-12-11T03:51:54.326Z,19.82
2022-12-11T03:54:22.905Z,19.77
2022-12-11T03:56:55.416Z,19.52
2022-12-11T03:59:22.103Z,19.57
2022-12-11T04:01:48.832Z,19.75
2022-12-11T04:04:19.542Z,20.22
2022-12-11T04:06:46.268Z,20.07
2022-12-11T04:09:12.994Z,19.75
2022-12-11T04:11:39.660Z,21.05
2022-12-11T04:14:26.967Z,20.55
2022-12-11T04:17:03.696Z,20.30
2022-12-11T04:19:44.115Z,20.13
2022-12-11T04:22:17.240Z,21.54
2022-12-11T04:24:43.864Z,19.98
2022-12-11T04:27:10.524Z,20.17
2022-12-11T04:29:37.166Z,18.89
2022-12-11T04:32:03.870Z,19.50
2022-12-11T04:34:30.594Z,19.10
2022-12-11T04:36:57.344Z,19.57
2022-12-11T04:39:26.336Z,18.02
2022-12-11T04:41:53.057Z,17.84
2022-12-11T04:44:19.672Z,18.26
2022-12-11T04:46:46.415Z,18.64
2022-12-11T04:49:13.080Z,17.55
2022-12-11T04:51:39.686Z,16.91
2022-12-11T04:54:06.374Z,16.69
2022-12-11T04:56:33.043Z,16.75
2022-12-11T04:58:59.640Z,16.82
2022-12-11T05:01:26.315Z,17.29
2022-12-11T05:03:53.033Z,17.26
2022-12-11T05:06:19.634Z,15.53
2022-12-11T05:08:46.278Z,15.51
2022-12-11T05:11:15.327Z,15.74
2022-12-11T05:13:43.326Z,15.86
2022-12-11T05:16:13.908Z,15.71
2022-12-11T05:18:40.594Z,15.02
2022-12-11T05:21:11.475Z,15.26
2022-12-11T05:23:39.258Z,15.26
2022-12-11T05:26:08.980Z,15.28
2022-12-11T05:28:37.447Z,15.52
2022-12-11T05:31:12.400Z,15.45
2022-12-11T05:33:39.612Z,16.06
2022-12-11T05:36:07.744Z,15.44
2022-12-11T05:38:34.746Z,16.20
2022-12-11T05:41:06.364Z,16.09
2022-12-11T05:43:35.968Z,15.97
2022-12-11T05:46:12.146Z,16.10
2022-12-11T05:48:39.775Z,16.71
2022-12-11T05:51:08.528Z,16.37
2022-12-11T05:53:39.303Z,16.53
2022-12-11T05:56:10.869Z,16.73
2022-12-11T05:58:39.379Z,16.91
2022-12-11T06:01:18.780Z,16.72
2022-12-11T06:03:45.778Z,17.35
2022-12-11T06:06:12.412Z,17.70
2022-12-11T06:08:39.433Z,18.59
2022-12-11T06:11:06.258Z,18.58
2022-12-11T06:13:33.800Z,18.55
2022-12-11T06:16:02.421Z,17.61
2022-12-11T06:18:29.396Z,17.90
2022-12-11T06:20:56.048Z,17.04
2022-12-11T06:23:23.107Z,16.34
2022-12-11T06:25:49.817Z,16.39
2022-12-11T06:28:16.556Z,15.90
2022-12-11T06:30:43.415Z,15.16
2022-12-11T06:33:10.163Z,15.23
2022-12-11T06:35:42.138Z,15.78
2022-12-11T06:38:09.985Z,15.57
2022-12-11T06:40:36.735Z,15.46
2022-12-11T06:43:03.566Z,15.48
2022-12-11T06:45:30.280Z,16.20
2022-12-11T06:47:56.970Z,17.32
2022-12-11T06:50:23.618Z,17.45
2022-12-11T06:52:50.383Z,16.55
2022-12-11T06:55:17.245Z,15.58
2022-12-11T06:57:43.876Z,15.54
2022-12-11T07:00:11.262Z,15.84
2022-12-11T07:02:37.919Z,16.26
2022-12-11T07:05:05.201Z,17.78
2022-12-11T07:07:31.841Z,17.64
2022-12-11T07:10:02.720Z,17.96
2022-12-11T07:12:34.216Z,18.09
2022-12-11T07:15:00.843Z,18.62
2022-12-11T07:17:29.483Z,19.58
2022-12-11T07:19:56.436Z,19.19
2022-12-11T07:22:23.283Z,20.01
2022-12-11T07:24:50.032Z,20.55
2022-12-11T07:27:16.705Z,20.13
2022-12-11T07:29:43.467Z,20.67
2022-12-11T07:32:10.232Z,20.23
2022-12-11T07:34:37.344Z,20.43
2022-12-11T07:37:05.277Z,20.38
2022-12-11T07:39:31.974Z,20.30
2022-12-11T07:41:58.684Z,19.61
2022-12-11T07:44:25.384Z,19.21
2022-12-11T07:46:52.052Z,18.21
2022-12-11T07:49:18.782Z,18.03
2022-12-11T07:51:46.789Z,17.25
2022-12-11T07:54:15.751Z,17.18
2022-12-11T07:56:52.792Z,16.44
2022-12-11T07:59:20.324Z,15.74
2022-12-11T08:01:47.077Z,15.81
2022-12-11T08:04:13.791Z,15.44
2022-12-11T08:06:42.562Z,15.12
2022-12-11T08:09:18.930Z,15.45
2022-12-11T08:11:51.949Z,14.67
2022-12-11T08:14:19.514Z,13.50
2022-12-11T08:16:47.116Z,13.01
2022-12-11T08:19:14.635Z,12.57
2022-12-11T08:21:41.440Z,11.13
2022-12-11T08:24:08.568Z,10.66
2022-12-11T08:26:35.551Z,10.17
2022-12-11T08:29:02.761Z,10.07
2022-12-11T08:31:29.983Z,9.57
2022-12-11T08:33:57.695Z,9.30
2022-12-11T08:36:25.450Z,9.62
2022-12-11T08:38:53.792Z,9.45
2022-12-11T08:41:24.460Z,9.19
2022-12-11T08:43:51.723Z,9.38
2022-12-11T08:46:18.633Z,9.57
2022-12-11T08:48:45.419Z,9.29
2022-12-11T08:51:16.862Z,9.59
2022-12-11T08:53:44.518Z,9.68
2022-12-11T08:56:14.787Z,10.15
2022-12-11T08:58:42.098Z,10.21
2022-12-11T09:01:11.809Z,10.87
2022-12-11T09:03:39.791Z,10.70
2022-12-11T09:06:12.282Z,11.63
2022-12-11T09:08:39.985Z,12.16
2022-12-11T09:11:10.093Z,12.11
2022-12-11T09:13:37.367Z,11.81
2022-12-11T09:16:06.953Z,11.65
2022-12-11T09:18:33.698Z,11.48
2022-12-11T09:21:09.743Z,11.34
2022-12-11T09:23:36.569Z,11.03
2022-12-11T09:26:08.490Z,11.11
2022-12-11T09:28:35.271Z,11.30
2022-12-11T09:31:01.966Z,11.25
2022-12-11T09:33:28.664Z,11.27
2022-12-11T09:36:02.800Z,11.66
2022-12-11T09:38:30.471Z,11.72
2022-12-11T09:40:57.459Z,11.69
2022-12-11T09:43:45.626Z,12.12
2022-12-11T09:46:14.586Z,12.49
2022-12-11T09:48:46.231Z,11.95
2022-12-11T09:51:41.852Z,12.13
2022-12-11T09:54:14.092Z,11.72
2022-12-11T09:57:07.891Z,12.83
2022-12-11T10:00:20.997Z,12.00
2022-12-11T10:03:37.067Z,11.67
2022-12-11T10:06:24.307Z,11.81
2022-12-11T10:09:08.797Z,11.20
2022-12-11T10:11:35.335Z,10.70
2022-12-11T10:14:39.635Z,10.88
2022-12-11T10:17:25.488Z,10.36
2022-12-11T10:19:53.371Z,10.35
2022-12-11T10:22:29.924Z,10.63
2022-12-11T10:25:15.531Z,9.64
2022-12-11T10:27:42.408Z,10.84
2022-12-11T10:30:14.982Z,11.01
2022-12-11T10:32:51.872Z,10.64
2022-12-11T10:35:36.587Z,11.35
2022-12-11T10:38:21.806Z,10.84
2022-12-11T10:40:58.435Z,9.72
2022-12-11T10:43:41.760Z,10.29
2022-12-11T10:46:18.027Z,9.56
2022-12-11T10:48:58.434Z,9.91
2022-12-11T10:51:31.122Z,9.66
2022-12-11T10:54:07.512Z,9.50
2022-12-11T10:56:37.896Z,9.27
2022-12-11T10:59:05.255Z,9.15
2022-12-11T11:01:33.009Z,8.95
2022-12-11T11:04:02.433Z,8.99
2022-12-11T11:06:29.296Z,9.08
2022-12-11T11:08:58.867Z,9.04
2022-12-11T11:11:25.429Z,10.46
2022-12-11T11:14:03.763Z,9.21
2022-12-11T11:16:31.181Z,9.58
2022-12-11T11:18:58.081Z,10.06
2022-12-11T11:21:27.111Z,10.48
2022-12-11T11:23:54.479Z,11.51
2022-12-11T11:26:22.746Z,13.89
2022-12-11T11:28:56.551Z,13.61
2022-12-11T11:31:34.213Z,13.16
2022-12-11T11:34:06.467Z,13.88
2022-12-11T11:36:35.627Z,13.89
2022-12-11T11:39:17.403Z,13.73
2022-12-11T11:42:01.659Z,14.26
2022-12-11T11:44:36.848Z,14.37
2022-12-11T11:47:15.909Z,14.49
2022-12-11T11:50:16.991Z,14.43
2022-12-11T11:52:58.790Z,14.05
2022-12-11T11:55:54.984Z,14.44
2022-12-11T11:58:31.363Z,13.74
2022-12-11T12:00:58.121Z,13.44
2022-12-11T12:03:25.918Z,14.18
2022-12-11T12:06:22.164Z,13.47
2022-12-11T12:09:26.441Z,12.75
2022-12-11T12:12:14.264Z,11.83
2022-12-11T12:14:55.322Z,11.73
2022-12-11T12:17:40.234Z,10.93
2022-12-11T12:20:31.251Z,11.68
2022-12-11T12:23:16.491Z,11.46
2022-12-11T12:26:05.791Z,11.99
2022-12-11T12:28:45.463Z,12.66
2022-12-11T12:31:20.995Z,12.69
2022-12-11T12:34:28.159Z,13.91
2022-12-11T12:36:54.700Z,11.95
2022-12-11T12:39:54.219Z,12.99
2022-12-11T12:42:47.147Z,12.51
2022-12-11T12:45:14.235Z,12.43
2022-12-11T12:47:51.992Z,12.48
2022-12-11T12:50:26.314Z,12.77
2022-12-11T12:52:55.263Z,12.33
2022-12-11T12:55:26.361Z,12.58
2022-12-11T12:58:05.531Z,13.08
2022-12-11T13:00:43.491Z,12.92
2022-12-11T13:03:18.667Z,13.41
2022-12-11T13:05:55.453Z,14.73
2022-12-11T13:08:34.794Z,13.87
2022-12-11T13:11:10.932Z,14.60
2022-12-11T13:13:39.275Z,14.80
2022-12-11T13:16:27.283Z,14.24
2022-12-11T13:18:54.621Z,14.45
2022-12-11T13:21:29.671Z,14.40
2022-12-11T13:24:16.968Z,14.37
2022-12-11T13:26:43.821Z,14.67
2022-12-11T13:29:30.172Z,14.53
2022-12-11T13:32:00.379Z,14.61
2022-12-11T13:34:33.098Z,15.47
2022-12-11T13:37:02.361Z,14.42
2022-12-11T13:39:39.427Z,14.70
2022-12-11T13:42:20.740Z,14.49
2022-12-11T13:44:49.273Z,14.67
2022-12-11T13:47:19.485Z,14.90
2022-12-11T13:49:53.158Z,14.65
2022-12-11T13:52:22.738Z,14.80
2022-12-11T13:54:52.491Z,14.42
2022-12-11T13:57:22.434Z,15.21
2022-12-11T13:59:52.258Z,14.93
2022-12-11T14:02:34.188Z,15.51
2022-12-11T14:05:07.420Z,15.59
2022-12-11T14:07:40.707Z,15.61
2022-12-11T14:10:24.458Z,14.80
2022-12-11T14:13:02.428Z,15.51
2022-12-11T14:15:32.234Z,15.86
2022-12-11T14:18:00.673Z,15.17
2022-12-11T14:20:31.782Z,16.02
2022-12-11T14:23:08.214Z,16.14
2022-12-11T14:25:34.987Z,16.40
2022-12-11T14:28:01.659Z,15.64
2022-12-11T14:30:32.780Z,17.75
2022-12-11T14:33:04.582Z,17.85
2022-12-11T14:35:38.627Z,18.17
2022-12-11T14:38:27.035Z,17.63
2022-12-11T14:41:05.328Z,18.45
2022-12-11T14:43:46.831Z,18.25
2022-12-11T14:46:25.238Z,19.50
2022-12-11T14:49:01.839Z,21.48
2022-12-11T14:51:38.713Z,23.19
2022-12-11T14:54:11.199Z,23.38
2022-12-11T14:56:56.775Z,19.68
2022-12-11T14:59:31.811Z,23.03
2022-12-11T15:02:21.260Z,22.30
2022-12-11T15:05:00.028Z,20.00
2022-12-11T15:07:26.656Z,21.17
2022-12-11T15:09:56.402Z,19.37
2022-12-11T15:12:23.947Z,18.38
2022-12-11T15:15:06.684Z,17.78
2022-12-11T15:17:35.747Z,18.35
2022-12-11T15:20:09.998Z,19.96
2022-12-11T15:22:38.020Z,18.76
2022-12-11T15:25:05.316Z,18.76
2022-12-11T15:27:36.901Z,21.99
2022-12-11T15:30:16.115Z,20.88
2022-12-11T15:32:42.898Z,19.80
2022-12-11T15:35:27.810Z,18.63
2022-12-11T15:37:56.451Z,18.75
2022-12-11T15:40:24.173Z,18.85
2022-12-11T15:42:52.159Z,18.44
2022-12-11T15:45:22.701Z,17.64
2022-12-11T15:47:50.742Z,18.31
2022-12-11T15:50:26.572Z,18.10
2022-12-11T15:52:56.010Z,17.42
2022-12-11T15:55:26.403Z,16.45
2022-12-11T15:57:55.985Z,16.99
2022-12-11T16:00:23.697Z,17.83
2022-12-11T16:02:50.790Z,17.33
2022-12-11T16:05:17.840Z,18.69
2022-12-11T16:07:45.392Z,18.62
2022-12-11T16:10:19.465Z,18.75
2022-12-11T16:12:46.278Z,18.34
2022-12-11T16:15:21.489Z,19.45
2022-12-11T16:17:50.060Z,20.68
2022-12-11T16:20:16.871Z,19.73
2022-12-11T16:22:43.617Z,18.67
2022-12-11T16:25:13.748Z,18.65
2022-12-11T16:27:40.971Z,20.57
2022-12-11T16:30:08.852Z,19.94
2022-12-11T16:32:38.647Z,19.86
2022-12-11T16:35:05.714Z,20.53
2022-12-11T16:37:39.528Z,19.41
2022-12-11T16:40:12.086Z,19.37
2022-12-11T16:42:38.869Z,20.22
2022-12-11T16:45:17.783Z,19.56
2022-12-11T16:47:44.722Z,23.36
2022-12-11T16:50:13.747Z,24.23
2022-12-11T16:52:40.541Z,21.56
2022-12-11T16:55:08.903Z,22.98
2022-12-11T16:57:36.232Z,22.04
2022-12-11T17:00:05.431Z,23.10
2022-12-11T17:02:32.661Z,23.04
2022-12-11T17:04:59.343Z,24.13
2022-12-11T17:07:26.309Z,24.71
2022-12-11T17:09:53.088Z,28.69
2022-12-11T17:12:19.939Z,28.21
2022-12-11T17:14:46.738Z,25.76
2022-12-11T17:17:13.356Z,25.55
2022-12-11T17:19:40.024Z,23.89
2022-12-11T17:22:06.922Z,24.35
2022-12-11T17:24:33.905Z,24.58
2022-12-11T17:27:00.783Z,24.49
2022-12-11T17:29:28.165Z,25.28
2022-12-11T17:31:54.858Z,27.50
2022-12-11T17:34:21.510Z,23.76
2022-12-11T17:36:48.240Z,22.62
2022-12-11T17:39:14.916Z,22.94
2022-12-11T17:41:41.576Z,23.00
2022-12-11T17:44:08.324Z,21.79
2022-12-11T17:46:35.093Z,22.28
2022-12-11T17:49:05.502Z,21.36
2022-12-11T17:51:37.475Z,20.21
2022-12-11T17:54:04.986Z,19.60
2022-12-11T17:56:31.688Z,19.39
2022-12-11T17:58:58.438Z,20.15
2022-12-11T18:01:25.226Z,18.82
2022-12-11T18:03:52.049Z,17.91
2022-12-11T18:06:19.931Z,18.24
2022-12-11T18:08:48.036Z,16.98
2022-12-11T18:11:19.915Z,16.72
2022-12-11T18:13:46.764Z,16.62
2022-12-11T18:16:18.736Z,16.65
2022-12-11T18:18:47.033Z,16.96
2022-12-11T18:21:16.242Z,17.36
2022-12-11T18:23:43.947Z,18.62
2022-12-11T18:26:10.736Z,18.85
2022-12-11T18:28:37.606Z,19.39
2022-12-11T18:31:04.659Z,20.39
2022-12-11T18:33:31.945Z,19.89
2022-12-11T18:35:58.723Z,20.74
2022-12-11T18:38:25.604Z,21.08
2022-12-11T18:40:52.313Z,21.59
2022-12-11T18:43:18.978Z,21.74
2022-12-11T18:45:45.827Z,22.24
2022-12-11T18:48:13.939Z,22.91
2022-12-11T18:50:52.121Z,22.23
2022-12-11T18:53:19.000Z,24.25
2022-12-11T18:55:48.622Z,23.36
2022-12-11T18:58:17.945Z,21.90
2022-12-11T19:00:45.561Z,22.25
2022-12-11T19:03:12.833Z,22.59
2022-12-11T19:05:41.033Z,23.07
2022-12-11T19:08:08.138Z,22.30
2022-12-11T19:10:41.444Z,23.34
2022-12-11T19:13:08.140Z,21.68
2022-12-11T19:15:38.725Z,22.12
2022-12-11T19:18:05.769Z,21.47
2022-12-11T19:20:57.665Z,21.17
2022-12-11T19:23:22.921Z,21.59
2022-12-11T19:25:50.067Z,22.09
2022-12-11T19:28:16.817Z,21.94
2022-12-11T19:30:45.819Z,21.79
2022-12-11T19:33:12.597Z,21.86
2022-12-11T19:35:39.793Z,21.71
2022-12-11T19:38:08.535Z,21.59
2022-12-11T19:40:43.303Z,20.92
2022-12-11T19:43:10.569Z,21.25
2022-12-11T19:45:37.716Z,20.98
2022-12-11T19:48:04.648Z,22.58
2022-12-11T19:50:31.318Z,21.71
2022-12-11T19:52:58.000Z,21.31
2022-12-11T19:55:24.698Z,22.35
2022-12-11T19:57:51.502Z,22.27
2022-12-11T20:00:18.721Z,21.79
2022-12-11T20:02:45.374Z,22.26
2022-12-11T20:05:12.519Z,22.01
2022-12-11T20:07:39.496Z,21.80
2022-12-11T20:10:06.726Z,21.84
2022-12-11T20:12:33.584Z,21.93
2022-12-11T20:15:00.403Z,21.49
2022-12-11T20:17:27.151Z,22.37
2022-12-11T20:19:54.036Z,22.03
2022-12-11T20:22:20.737Z,22.16
2022-12-11T20:24:47.571Z,22.82
2022-12-11T20:27:14.249Z,23.37
2022-12-11T20:29:40.881Z,23.45
2022-12-11T20:32:07.876Z,26.21
2022-12-11T20:34:34.735Z,25.34
2022-12-11T20:37:01.559Z,23.52
2022-12-11T20:39:28.379Z,24.26
2022-12-11T20:41:55.154Z,26.35
2022-12-11T20:44:21.795Z,26.43
2022-12-11T20:46:49.689Z,21.86
2022-12-11T20:49:19.366Z,21.83
2022-12-11T20:51:46.260Z,21.16
2022-12-11T20:54:12.987Z,21.18
2022-12-11T20:56:39.725Z,20.21
2022-12-11T20:59:06.445Z,20.61
2022-12-11T21:01:33.269Z,20.22
2022-12-11T21:04:00.850Z,20.56
2022-12-11T21:06:33.973Z,19.77
2022-12-11T21:09:06.683Z,20.49
2022-12-11T21:11:33.787Z,20.13
2022-12-11T21:14:00.486Z,19.90
2022-12-11T21:16:27.320Z,19.98
2022-12-11T21:18:55.644Z,19.55
2022-12-11T21:21:22.493Z,19.46
2022-12-11T21:23:49.190Z,19.50
2022-12-11T21:26:16.175Z,19.81
2022-12-11T21:28:43.044Z,19.12
2022-12-11T21:31:14.731Z,19.42
2022-12-11T21:33:41.456Z,19.49
2022-12-11T21:36:10.175Z,19.48
2022-12-11T21:38:37.608Z,19.85
2022-12-11T21:41:23.559Z,19.13
2022-12-11T21:44:56.483Z,19.17
2022-12-11T21:46:40.531Z,18.93
2022-12-11T21:49:07.524Z,19.59
2022-12-11T21:51:42.552Z,19.64
2022-12-11T21:54:14.990Z,18.79
2022-12-11T21:56:41.803Z,18.65
2022-12-11T21:59:08.494Z,19.17
2022-12-11T22:01:39.007Z,18.96
2022-12-11T22:04:05.695Z,18.67
2022-12-11T22:06:33.383Z,18.58
2022-12-11T22:09:00.568Z,18.49
2022-12-11T22:11:30.940Z,18.54
2022-12-11T22:13:58.256Z,18.44
2022-12-11T22:16:25.016Z,18.21
2022-12-11T22:18:51.910Z,17.72
2022-12-11T22:21:19.611Z,17.61
2022-12-11T22:23:46.885Z,17.21
2022-12-11T22:26:19.858Z,17.12
2022-12-11T22:28:46.727Z,17.12
2022-12-11T22:31:15.006Z,16.83
2022-12-11T22:33:41.816Z,16.70
2022-12-11T22:36:10.714Z,16.14
2022-12-11T22:38:37.993Z,16.23
2022-12-11T22:41:22.295Z,15.92
2022-12-11T22:43:49.706Z,16.47
2022-12-11T22:46:19.659Z,15.98
2022-12-11T22:48:46.542Z,16.07
2022-12-11T22:51:13.708Z,15.83
2022-12-11T22:53:40.374Z,15.96
2022-12-11T22:56:09.461Z,16.43
2022-12-11T22:58:36.797Z,16.22
2022-12-11T23:01:09.453Z,16.12
2022-12-11T23:03:36.778Z,15.69
2022-12-11T23:06:08.351Z,15.64
2022-12-11T23:08:35.956Z,15.74
2022-12-11T23:11:11.039Z,15.84
2022-12-11T23:13:37.792Z,15.70
2022-12-11T23:16:07.127Z,14.91
2022-12-11T23:18:33.868Z,15.39
2022-12-11T23:21:00.816Z,15.57
2022-12-11T23:23:27.412Z,15.54
2022-12-11T23:25:54.272Z,15.30
2022-12-11T23:28:20.976Z,16.14
2022-12-11T23:30:47.760Z,15.60
2022-12-11T23:33:14.652Z,16.15
2022-12-11T23:35:41.329Z,16.26
2022-12-11T23:38:08.036Z,15.91
2022-12-11T23:40:37.727Z,16.07
2022-12-11T23:43:04.336Z,16.29
2022-12-11T23:45:31.056Z,16.01
2022-12-11T23:47:57.678Z,16.19
2022-12-11T23:50:24.328Z,16.59
2022-12-11T23:52:50.947Z,16.34
2022-12-11T23:55:17.684Z,16.73
2022-12-11T23:57:44.278Z,16.51
